BOV weather

Bonito Valle Airport
Mexicali, Baja California, Mexico

Public forecast

Using degrees Celsius for public forecast. Weather courtesy of forecast.io.

Closest aviation weather report (METAR) to Bonito Valle Airport

Report is more than 2 hours old.

Closest report is General Rodolfo Sánchez Taboada International Airport, 13.5 nm (25.0 km) WNW. Retrieved 2020/02/17 08:52 UTC (3 hours ago):

MMML 170852Z 09003KT 10SM SKC 12/05 A2991 RMK SLP129 57010 993

Closest aviation forecast (TAF) to Bonito Valle Airport

Closest forecast is General Rodolfo Sánchez Taboada International Airport, 13.5 nm (25.0 km) WNW. Retrieved 2020/02/17 06:49 UTC (5 hours ago):

TAF MMML 170442Z 1706/1806 16005KT P6SM SKC FM171800 14010KT P6SM SKC FM180300 14005KT P6SM SKC